createdAt,value
2019-01-31T00:02:57.301Z,2.57
2019-01-31T00:06:29.677Z,2.63
2019-01-31T00:09:56.130Z,2.40
2019-01-31T00:13:06.400Z,2.27
2019-01-31T00:16:42.212Z,2.50
2019-01-31T00:19:38.487Z,2.47
2019-01-31T00:23:15.263Z,2.33
2019-01-31T00:26:33.246Z,2.93
2019-01-31T00:30:33.229Z,2.83
2019-01-31T00:34:04.703Z,2.63
2019-01-31T00:38:04.298Z,2.67
2019-01-31T00:41:21.753Z,2.40
2019-01-31T00:44:46.586Z,3.07
2019-01-31T00:48:07.301Z,3.10
2019-01-31T00:51:22.064Z,2.87
2019-01-31T00:55:01.370Z,3.10
2019-01-31T00:58:19.264Z,4.77
2019-01-31T01:01:41.275Z,4.93
2019-01-31T01:04:59.700Z,4.90
2019-01-31T01:08:43.812Z,5.13
2019-01-31T01:12:05.105Z,5.57
2019-01-31T01:15:28.850Z,4.90
2019-01-31T01:19:06.401Z,5.10
2019-01-31T01:22:22.305Z,4.30
2019-01-31T01:26:13.414Z,5.87
2019-01-31T01:29:31.236Z,5.83
2019-01-31T01:32:40.264Z,4.90
2019-01-31T01:36:11.417Z,5.03
2019-01-31T01:39:19.249Z,4.90
2019-01-31T01:42:24.229Z,4.50
2019-01-31T01:45:34.901Z,4.60
2019-01-31T01:48:59.536Z,4.43
2019-01-31T01:52:40.583Z,4.77
2019-01-31T01:56:21.528Z,4.73
2019-01-31T01:59:35.839Z,4.57
2019-01-31T02:03:27.069Z,4.40
2019-01-31T02:06:56.967Z,4.57
2019-01-31T02:10:31.730Z,3.53
2019-01-31T02:13:51.228Z,4.23
2019-01-31T02:17:08.098Z,3.37
2019-01-31T02:20:24.935Z,3.63
2019-01-31T02:23:33.840Z,3.30
2019-01-31T02:26:59.609Z,3.20
2019-01-31T02:29:58.079Z,3.40
2019-01-31T02:33:32.893Z,3.60
2019-01-31T02:37:04.829Z,3.90
2019-01-31T02:40:46.629Z,4.50
2019-01-31T02:43:56.535Z,4.30
2019-01-31T02:47:12.851Z,4.00
2019-01-31T02:50:29.135Z,3.13
2019-01-31T02:53:51.474Z,3.60
2019-01-31T02:56:47.516Z,3.27
2019-01-31T02:59:58.908Z,3.60
2019-01-31T03:03:14.984Z,4.10
2019-01-31T03:06:30.075Z,3.60
2019-01-31T03:10:17.692Z,3.97
2019-01-31T03:13:29.491Z,4.03
2019-01-31T03:16:54.758Z,3.57
2019-01-31T03:20:16.762Z,3.20
2019-01-31T03:23:44.951Z,3.80
2019-01-31T03:27:15.433Z,3.33
2019-01-31T03:30:28.613Z,3.90
2019-01-31T03:33:45.095Z,3.33
2019-01-31T03:37:22.618Z,2.90
2019-01-31T03:40:51.418Z,3.20
2019-01-31T03:44:13.301Z,2.97
2019-01-31T03:47:45.007Z,3.67
2019-01-31T03:50:59.599Z,2.90
2019-01-31T03:54:30.739Z,3.03
2019-01-31T03:57:34.660Z,3.30
2019-01-31T04:00:41.707Z,2.90
2019-01-31T04:03:34.387Z,3.37
2019-01-31T04:06:20.471Z,3.90
2019-01-31T04:08:52.597Z,3.03
2019-01-31T04:11:24.731Z,2.80
2019-01-31T04:13:56.838Z,2.50
2019-01-31T04:16:29.061Z,2.60
2019-01-31T04:19:01.187Z,3.00
2019-01-31T04:21:33.327Z,2.30
2019-01-31T04:24:05.445Z,2.40
2019-01-31T04:26:37.577Z,2.70
2019-01-31T04:29:10.181Z,2.50
2019-01-31T04:31:42.393Z,2.30
2019-01-31T04:34:14.526Z,2.73
2019-01-31T04:36:46.664Z,2.33
2019-01-31T04:39:18.835Z,3.00
2019-01-31T04:41:51.169Z,2.60
2019-01-31T04:44:23.808Z,2.80
2019-01-31T04:46:56.056Z,3.33
2019-01-31T04:49:28.201Z,2.73
2019-01-31T04:52:00.462Z,2.53
2019-01-31T04:54:32.663Z,2.40
2019-01-31T04:57:04.812Z,1.97
2019-01-31T04:59:36.930Z,2.03
2019-01-31T05:02:09.154Z,2.67
2019-01-31T05:04:41.333Z,2.17
2019-01-31T05:07:13.481Z,2.43
2019-01-31T05:09:45.659Z,2.27
2019-01-31T05:12:17.897Z,2.40
2019-01-31T05:14:50.009Z,2.13
2019-01-31T05:17:22.150Z,2.10
2019-01-31T05:19:54.270Z,2.33
2019-01-31T05:22:26.413Z,1.97
2019-01-31T05:24:58.520Z,2.63
2019-01-31T05:27:30.680Z,2.30
2019-01-31T05:30:02.801Z,2.10
2019-01-31T05:32:34.938Z,2.23
2019-01-31T05:35:07.874Z,1.80
2019-01-31T05:37:40.022Z,2.00
2019-01-31T05:40:14.663Z,2.00
2019-01-31T05:42:46.904Z,2.20
2019-01-31T05:45:19.018Z,2.00
2019-01-31T05:47:51.231Z,2.33
2019-01-31T05:50:23.345Z,2.13
2019-01-31T05:52:55.494Z,2.43
2019-01-31T05:55:27.686Z,2.10
2019-01-31T05:57:59.811Z,2.00
2019-01-31T06:00:36.248Z,2.10
2019-01-31T06:03:08.389Z,2.23
2019-01-31T06:05:40.498Z,2.10
2019-01-31T06:08:12.644Z,2.10
2019-01-31T06:10:44.754Z,2.00
2019-01-31T06:13:16.899Z,2.10
2019-01-31T06:15:49.113Z,2.07
2019-01-31T06:18:21.267Z,2.10
2019-01-31T06:20:53.375Z,2.63
2019-01-31T06:23:25.515Z,2.07
2019-01-31T06:25:57.636Z,1.90
2019-01-31T06:28:29.842Z,2.40
2019-01-31T06:31:02.272Z,2.20
2019-01-31T06:33:34.452Z,3.00
2019-01-31T06:36:06.745Z,1.97
2019-01-31T06:38:40.353Z,2.47
2019-01-31T06:41:18.691Z,4.20
2019-01-31T06:43:47.709Z,3.43
2019-01-31T06:46:19.956Z,4.33
2019-01-31T06:48:52.748Z,4.37
2019-01-31T06:51:25.080Z,3.17
2019-01-31T06:53:57.344Z,2.40
2019-01-31T06:56:29.548Z,2.80
2019-01-31T06:59:01.865Z,2.17
2019-01-31T07:01:34.264Z,3.37
2019-01-31T07:04:06.441Z,2.20
2019-01-31T07:06:38.752Z,2.50
2019-01-31T07:09:12.220Z,3.33
2019-01-31T07:11:44.409Z,2.83
2019-01-31T07:14:16.562Z,2.70
2019-01-31T07:16:48.773Z,2.00
2019-01-31T07:19:20.927Z,2.20
2019-01-31T07:21:53.131Z,2.53
2019-01-31T07:24:25.282Z,2.00
2019-01-31T07:26:57.400Z,1.93
2019-01-31T07:29:29.539Z,2.20
2019-01-31T07:32:03.644Z,2.13
2019-01-31T07:34:35.504Z,2.10
2019-01-31T07:37:07.588Z,2.40
2019-01-31T07:39:39.735Z,2.13
2019-01-31T07:42:11.896Z,2.13
2019-01-31T07:44:44.067Z,2.20
2019-01-31T07:47:16.236Z,2.40
2019-01-31T07:49:48.385Z,2.20
2019-01-31T07:52:20.686Z,2.90
2019-01-31T07:54:52.961Z,2.53
2019-01-31T07:57:25.073Z,2.63
2019-01-31T07:59:57.233Z,2.10
2019-01-31T08:02:29.348Z,2.27
2019-01-31T08:05:01.497Z,2.60
2019-01-31T08:07:33.793Z,2.50
2019-01-31T08:10:08.802Z,2.50
2019-01-31T08:12:40.998Z,2.50
2019-01-31T08:15:15.440Z,2.90
2019-01-31T08:17:47.557Z,1.97
2019-01-31T08:20:19.979Z,2.37
2019-01-31T08:22:52.181Z,2.10
2019-01-31T08:25:24.754Z,2.13
2019-01-31T08:27:56.939Z,2.37
2019-01-31T08:30:32.718Z,2.37
2019-01-31T08:33:04.923Z,2.90
2019-01-31T08:35:37.220Z,2.30
2019-01-31T08:38:09.348Z,1.90
2019-01-31T08:40:41.983Z,2.13
2019-01-31T08:43:14.504Z,2.30
2019-01-31T08:45:46.756Z,2.10
2019-01-31T08:48:20.513Z,2.10
2019-01-31T08:50:52.744Z,2.70
2019-01-31T08:53:24.890Z,3.37
2019-01-31T08:55:57.138Z,4.00
2019-01-31T08:58:29.288Z,3.20
2019-01-31T09:01:01.447Z,2.67
2019-01-31T09:03:33.719Z,3.20
2019-01-31T09:06:06.142Z,2.60
2019-01-31T09:08:38.346Z,4.70
2019-01-31T09:11:10.634Z,4.13
2019-01-31T09:13:42.751Z,5.30
2019-01-31T09:16:15.052Z,3.97
2019-01-31T09:18:47.249Z,3.30
2019-01-31T09:22:06.732Z,3.40
2019-01-31T09:25:41.352Z,3.20
2019-01-31T09:29:14.912Z,2.73
2019-01-31T09:32:37.851Z,3.00
2019-01-31T09:35:38.835Z,3.00
2019-01-31T09:39:10.749Z,2.87
2019-01-31T09:42:34.043Z,2.27
2019-01-31T09:45:58.417Z,2.40
2019-01-31T09:49:19.978Z,1.87
2019-01-31T09:52:28.418Z,2.50
2019-01-31T09:55:28.201Z,2.20
2019-01-31T09:58:59.298Z,1.67
2019-01-31T10:02:41.593Z,1.90
2019-01-31T10:06:14.216Z,4.60
2019-01-31T10:09:29.985Z,7.50
2019-01-31T10:12:49.710Z,10.77
2019-01-31T10:16:12.590Z,6.70
2019-01-31T10:19:51.194Z,4.93
2019-01-31T10:23:57.590Z,6.63
2019-01-31T10:27:02.287Z,5.63
2019-01-31T10:30:36.902Z,4.73
2019-01-31T10:34:07.055Z,2.30
2019-01-31T10:37:35.750Z,3.20
2019-01-31T10:41:14.078Z,2.33
2019-01-31T10:44:35.763Z,2.23
2019-01-31T10:48:17.437Z,2.57
2019-01-31T10:52:04.375Z,2.20
2019-01-31T10:55:18.370Z,2.30
2019-01-31T10:58:47.452Z,2.17
2019-01-31T11:02:06.777Z,2.67
2019-01-31T11:05:13.553Z,2.43
2019-01-31T11:08:02.856Z,2.50
2019-01-31T11:11:16.558Z,3.07
2019-01-31T11:14:50.542Z,2.97
2019-01-31T11:18:14.472Z,3.90
2019-01-31T11:21:50.568Z,3.40
2019-01-31T11:25:14.249Z,2.57
2019-01-31T11:28:51.429Z,8.63
2019-01-31T11:31:58.888Z,3.37
2019-01-31T11:35:44.954Z,3.90
2019-01-31T11:39:19.697Z,2.70
2019-01-31T11:42:45.659Z,6.13
2019-01-31T11:46:00.430Z,3.43
2019-01-31T11:49:10.527Z,5.27
2019-01-31T11:52:54.603Z,4.63
2019-01-31T11:56:01.524Z,4.07
2019-01-31T11:59:02.061Z,3.07
2019-01-31T12:01:36.768Z,3.00
2019-01-31T12:04:15.530Z,4.93
2019-01-31T12:06:47.732Z,2.70
2019-01-31T12:09:21.744Z,3.47
2019-01-31T12:11:53.917Z,3.30
2019-01-31T12:14:26.010Z,2.87
2019-01-31T12:16:58.206Z,3.60
2019-01-31T12:19:30.351Z,4.30
2019-01-31T12:22:02.559Z,4.47
2019-01-31T12:24:34.783Z,3.63
2019-01-31T12:27:07.127Z,3.73
2019-01-31T12:29:39.298Z,3.53
2019-01-31T12:32:11.432Z,4.13
2019-01-31T12:34:43.748Z,4.70
2019-01-31T12:37:15.912Z,4.13
2019-01-31T12:39:48.203Z,3.33
2019-01-31T12:42:20.319Z,3.40
2019-01-31T12:44:52.682Z,2.90
2019-01-31T12:47:24.894Z,3.17
2019-01-31T12:49:57.013Z,3.23
2019-01-31T12:52:29.263Z,3.03
2019-01-31T12:55:01.498Z,3.30
2019-01-31T12:57:33.711Z,3.60
2019-01-31T13:00:28.814Z,3.57
2019-01-31T13:03:01.019Z,2.60
2019-01-31T13:05:35.132Z,2.90
2019-01-31T13:08:07.587Z,3.63
2019-01-31T13:10:39.984Z,8.07
2019-01-31T13:13:12.089Z,3.90
2019-01-31T13:15:44.496Z,3.23
2019-01-31T13:18:17.232Z,7.20
2019-01-31T13:20:49.762Z,3.77
2019-01-31T13:23:22.231Z,4.00
2019-01-31T13:25:54.500Z,3.03
2019-01-31T13:28:26.646Z,3.23
2019-01-31T13:30:58.784Z,3.30
2019-01-31T13:33:31.003Z,3.07
2019-01-31T13:36:03.276Z,3.40
2019-01-31T13:38:35.493Z,3.20
2019-01-31T13:41:07.620Z,2.40
2019-01-31T13:43:39.836Z,2.70
2019-01-31T13:46:11.962Z,3.13
2019-01-31T13:48:44.258Z,2.90
2019-01-31T13:51:16.830Z,2.70
2019-01-31T13:53:49.601Z,3.23
2019-01-31T13:56:23.757Z,3.07
2019-01-31T13:58:56.226Z,4.10
2019-01-31T14:01:28.987Z,2.97
2019-01-31T14:04:03.072Z,3.80
2019-01-31T14:06:35.471Z,3.30
2019-01-31T14:09:09.495Z,2.63
2019-01-31T14:11:42.690Z,2.90
2019-01-31T14:14:14.996Z,3.03
2019-01-31T14:16:48.124Z,3.13
2019-01-31T14:19:20.393Z,2.63
2019-01-31T14:21:52.695Z,2.80
2019-01-31T14:24:25.018Z,3.23
2019-01-31T14:27:17.918Z,2.93
2019-01-31T14:29:50.189Z,2.97
2019-01-31T14:32:22.699Z,2.70
2019-01-31T14:34:54.967Z,3.73
2019-01-31T14:37:27.241Z,3.07
2019-01-31T14:39:59.617Z,3.47
2019-01-31T14:42:31.843Z,3.10
2019-01-31T14:45:04.401Z,3.20
2019-01-31T14:47:36.668Z,3.03
2019-01-31T14:50:13.817Z,3.10
2019-01-31T14:52:46.730Z,2.87
2019-01-31T14:55:18.873Z,2.60
2019-01-31T14:57:51.020Z,2.83
2019-01-31T15:00:29.373Z,2.70
2019-01-31T15:03:01.485Z,3.43
2019-01-31T15:05:36.597Z,3.07
2019-01-31T15:08:07.912Z,2.80
2019-01-31T15:10:40.131Z,3.50
2019-01-31T15:13:12.251Z,2.63
2019-01-31T15:15:44.387Z,2.93
2019-01-31T15:18:16.569Z,2.87
2019-01-31T15:20:49.680Z,3.00
2019-01-31T15:23:21.906Z,2.97
2019-01-31T15:25:54.184Z,2.97
2019-01-31T15:28:26.390Z,2.90
2019-01-31T15:30:58.539Z,3.03
2019-01-31T15:33:30.648Z,3.67
2019-01-31T15:36:02.788Z,3.93
2019-01-31T15:38:34.896Z,3.60
2019-01-31T15:41:07.270Z,3.63
2019-01-31T15:43:39.685Z,3.73
2019-01-31T15:46:11.854Z,3.70
2019-01-31T15:48:43.971Z,3.47
2019-01-31T15:51:16.106Z,3.30
2019-01-31T15:53:48.246Z,2.93
2019-01-31T15:56:20.572Z,3.57
2019-01-31T15:58:52.711Z,3.73
2019-01-31T16:01:26.094Z,3.50
2019-01-31T16:04:00.848Z,2.93
2019-01-31T16:06:32.201Z,3.20
2019-01-31T16:09:06.175Z,3.20
2019-01-31T16:11:38.715Z,3.97
2019-01-31T16:14:11.041Z,4.10
2019-01-31T16:16:44.137Z,3.97
2019-01-31T16:19:16.312Z,3.80
2019-01-31T16:21:48.534Z,3.60
2019-01-31T16:24:20.947Z,3.17
2019-01-31T16:26:53.085Z,2.83
2019-01-31T16:29:25.316Z,3.13
2019-01-31T16:31:57.713Z,4.17
2019-01-31T16:34:31.023Z,3.40
2019-01-31T16:37:03.378Z,3.17
2019-01-31T16:39:35.498Z,2.77
2019-01-31T16:42:07.706Z,3.20
2019-01-31T16:44:40.045Z,3.40
2019-01-31T16:47:12.256Z,3.47
2019-01-31T16:49:44.383Z,4.13
2019-01-31T16:52:16.551Z,4.37
2019-01-31T16:54:48.686Z,4.40
2019-01-31T16:57:20.826Z,4.50
2019-01-31T16:59:52.937Z,3.33
2019-01-31T17:02:25.400Z,3.87
2019-01-31T17:04:57.532Z,3.93
2019-01-31T17:07:29.677Z,4.20
2019-01-31T17:10:01.875Z,4.83
2019-01-31T17:12:34.379Z,7.00
2019-01-31T17:15:17.698Z,6.73
2019-01-31T17:17:41.138Z,5.63
2019-01-31T17:20:21.713Z,5.17
2019-01-31T17:22:53.850Z,4.83
2019-01-31T17:25:26.198Z,5.47
2019-01-31T17:27:58.452Z,5.00
2019-01-31T17:30:30.582Z,4.60
2019-01-31T17:33:02.727Z,4.97
2019-01-31T17:35:34.920Z,4.93
2019-01-31T17:38:07.202Z,5.60
2019-01-31T17:40:41.903Z,6.23
2019-01-31T17:43:14.859Z,4.80
2019-01-31T17:45:46.989Z,5.13
2019-01-31T17:48:19.126Z,5.80
2019-01-31T17:50:51.315Z,5.47
2019-01-31T17:53:23.467Z,6.37
2019-01-31T17:55:55.585Z,5.90
2019-01-31T17:58:27.795Z,6.27
2019-01-31T18:01:00.003Z,5.37
2019-01-31T18:03:32.577Z,10.57
2019-01-31T18:06:04.764Z,9.77
2019-01-31T18:08:37.259Z,11.23
2019-01-31T18:11:09.385Z,28.37
2019-01-31T18:13:41.530Z,19.17
2019-01-31T18:16:13.633Z,7.67
2019-01-31T18:18:46.799Z,6.10
2019-01-31T18:21:18.928Z,5.07
2019-01-31T18:23:51.056Z,5.10
2019-01-31T18:26:23.168Z,5.70
2019-01-31T18:28:55.325Z,4.73
2019-01-31T18:31:27.451Z,5.10
2019-01-31T18:33:59.711Z,5.57
2019-01-31T18:36:31.842Z,4.37
2019-01-31T18:39:09.526Z,5.10
2019-01-31T18:41:41.711Z,4.67
2019-01-31T18:44:13.859Z,4.27
2019-01-31T18:46:45.967Z,6.10
2019-01-31T18:49:18.163Z,4.67
2019-01-31T18:51:50.246Z,4.40
2019-01-31T18:54:22.522Z,4.97
2019-01-31T18:56:54.632Z,5.70
2019-01-31T18:59:26.783Z,5.53
2019-01-31T19:01:58.946Z,5.00
2019-01-31T19:04:31.083Z,4.90
2019-01-31T19:07:03.293Z,4.20
2019-01-31T19:09:35.421Z,3.40
2019-01-31T19:12:07.867Z,3.17
2019-01-31T19:14:40.648Z,3.60
2019-01-31T19:17:12.770Z,4.47
2019-01-31T19:19:45.335Z,4.13
2019-01-31T19:22:17.551Z,3.77
2019-01-31T19:24:49.983Z,4.00
2019-01-31T19:27:22.135Z,3.73
2019-01-31T19:29:54.588Z,3.27
2019-01-31T19:32:26.787Z,3.27
2019-01-31T19:34:59.152Z,3.37
2019-01-31T19:37:31.324Z,3.33
2019-01-31T19:40:03.471Z,3.63
2019-01-31T19:42:36.062Z,3.70
2019-01-31T19:45:12.950Z,3.00
2019-01-31T19:47:45.275Z,3.33
2019-01-31T19:50:17.407Z,3.93
2019-01-31T19:52:49.543Z,3.37
2019-01-31T19:55:21.681Z,3.13
2019-01-31T19:57:53.860Z,3.30
2019-01-31T20:00:26.040Z,2.70
2019-01-31T20:02:58.227Z,2.73
2019-01-31T20:05:30.438Z,2.67
2019-01-31T20:08:02.577Z,3.13
2019-01-31T20:10:34.997Z,2.50
2019-01-31T20:13:07.124Z,3.10
2019-01-31T20:15:39.382Z,2.80
2019-01-31T20:18:11.650Z,2.60
2019-01-31T20:20:43.913Z,2.97
2019-01-31T20:23:16.364Z,2.70
2019-01-31T20:25:48.821Z,2.50
2019-01-31T20:28:22.177Z,2.80
2019-01-31T20:30:54.728Z,2.87
2019-01-31T20:33:26.907Z,2.77
2019-01-31T20:35:59.110Z,2.87
2019-01-31T20:38:31.298Z,3.23
2019-01-31T20:41:03.734Z,3.10
2019-01-31T20:43:35.983Z,3.70
2019-01-31T20:46:08.334Z,3.17
2019-01-31T20:48:40.762Z,2.90
2019-01-31T20:51:12.978Z,2.80
2019-01-31T20:53:54.210Z,3.20
2019-01-31T20:56:26.415Z,2.90
2019-01-31T20:58:58.535Z,3.20
2019-01-31T21:01:30.688Z,3.70
2019-01-31T21:04:02.874Z,3.30
2019-01-31T21:06:41.336Z,2.90
2019-01-31T21:09:09.210Z,2.90
2019-01-31T21:11:42.966Z,3.00
2019-01-31T21:14:15.422Z,3.17
2019-01-31T21:16:51.784Z,3.30
2019-01-31T21:19:21.425Z,3.07
2019-01-31T21:21:53.560Z,3.13
2019-01-31T21:24:25.758Z,2.90
2019-01-31T21:26:57.927Z,3.27
2019-01-31T21:29:30.046Z,3.30
2019-01-31T21:32:02.182Z,3.30
2019-01-31T21:34:34.374Z,3.87
2019-01-31T21:37:06.502Z,3.70
2019-01-31T21:39:38.611Z,3.50
2019-01-31T21:42:10.761Z,3.30
2019-01-31T21:44:42.857Z,3.40
2019-01-31T21:47:14.999Z,3.33
2019-01-31T21:49:47.251Z,3.47
2019-01-31T21:52:20.716Z,3.50
2019-01-31T21:54:52.831Z,3.50
2019-01-31T21:57:24.963Z,3.10
2019-01-31T21:59:58.077Z,3.70
2019-01-31T22:02:30.139Z,4.17
2019-01-31T22:05:02.240Z,3.90
2019-01-31T22:07:34.676Z,3.50
2019-01-31T22:10:08.314Z,3.70
2019-01-31T22:12:40.450Z,3.30
2019-01-31T22:15:25.555Z,3.47
2019-01-31T22:18:00.244Z,3.93
2019-01-31T22:20:31.586Z,4.00
2019-01-31T22:23:03.711Z,4.43
2019-01-31T22:25:35.829Z,3.33
2019-01-31T22:28:09.036Z,4.00
2019-01-31T22:30:41.217Z,3.60
2019-01-31T22:33:13.356Z,4.27
2019-01-31T22:35:45.547Z,4.40
2019-01-31T22:38:17.684Z,3.23
2019-01-31T22:40:49.802Z,4.10
2019-01-31T22:43:21.940Z,4.10
2019-01-31T22:45:54.056Z,4.20
2019-01-31T22:48:26.198Z,4.17
2019-01-31T22:50:59.393Z,4.40
2019-01-31T22:53:31.628Z,4.47
2019-01-31T22:56:03.750Z,4.73
2019-01-31T22:58:35.902Z,4.63
2019-01-31T23:01:35.862Z,4.50
2019-01-31T23:04:08.104Z,4.50
2019-01-31T23:06:41.272Z,3.93
2019-01-31T23:09:14.130Z,4.57
2019-01-31T23:11:46.232Z,4.70
2019-01-31T23:14:18.370Z,4.80
2019-01-31T23:16:50.553Z,4.33
2019-01-31T23:19:22.697Z,4.73
2019-01-31T23:21:54.804Z,4.77
2019-01-31T23:24:26.944Z,4.37
2019-01-31T23:26:59.126Z,4.40
2019-01-31T23:29:31.266Z,4.13
2019-01-31T23:32:03.380Z,4.23
2019-01-31T23:34:35.517Z,3.90
2019-01-31T23:37:07.634Z,4.37
2019-01-31T23:39:39.762Z,3.53
2019-01-31T23:42:11.940Z,3.90
2019-01-31T23:44:44.085Z,4.27
2019-01-31T23:47:16.396Z,4.13
2019-01-31T23:49:48.546Z,4.73
2019-01-31T23:52:20.906Z,3.90
2019-01-31T23:54:53.056Z,3.90
2019-01-31T23:57:25.175Z,3.70
2019-01-31T23:59:57.315Z,3.93
